Time;durP1;ratioP1;P1;durP2;ratioP2;P2;SDS_P1;SDS_P2;PMS_P1;PMS_P2;Temp;Humidity;BMP_temperature;BMP_pressure;BME280_temperature;BME280_humidity;BME280_pressure;Samples;Min_cycle;Max_cycle;Signal;HPM_P1;HPM_P2
2022/02/23 00:01:42;;;;;;;22.33;10.30;;;;;;;4.76;60.99;99654.50;5065265;28;20059;-78
2022/02/23 00:04:09;;;;;;;23.00;9.10;;;;;;;4.81;60.79;99643.75;5047424;28;20075;-76
2022/02/23 00:06:36;;;;;;;22.55;10.40;;;;;;;4.82;60.95;99643.66;5063961;28;20549;-75
2022/02/23 00:09:03;;;;;;;18.00;8.38;;;;;;;4.87;60.88;99646.84;5064960;28;20576;-75
2022/02/23 00:11:30;;;;;;;20.10;7.38;;;;;;;4.95;60.74;99641.16;5065239;28;20735;-73
2022/02/23 00:13:57;;;;;;;20.23;8.38;;;;;;;5.02;60.59;99639.03;5064166;28;20056;-75
2022/02/23 00:16:25;;;;;;;17.85;8.25;;;;;;;5.04;60.47;99637.16;5064385;28;20147;-76
2022/02/23 00:18:53;;;;;;;23.40;8.23;;;;;;;5.11;60.43;99635.88;5064548;28;20084;-76
2022/02/23 00:21:20;;;;;;;21.98;8.30;;;;;;;5.19;60.23;99635.44;5063897;28;20337;-75
2022/02/23 00:23:47;;;;;;;17.25;8.20;;;;;;;5.20;60.25;99627.47;5064218;28;20044;-74
2022/02/23 00:26:14;;;;;;;18.20;7.45;;;;;;;5.23;60.24;99627.28;5062471;28;20045;-74
2022/02/23 00:28:41;;;;;;;16.70;8.00;;;;;;;5.24;60.20;99617.63;5063574;28;20055;-77
2022/02/23 00:31:08;;;;;;;21.42;7.88;;;;;;;5.25;60.33;99624.56;5064632;28;20392;-77
2022/02/23 00:33:35;;;;;;;14.10;8.13;;;;;;;5.24;60.10;99615.03;5064260;28;20047;-75
2022/02/23 00:36:04;;;;;;;17.08;8.20;;;;;;;5.24;60.17;99613.28;5063754;28;20091;-76
2022/02/23 00:38:31;;;;;;;12.38;6.03;;;;;;;5.24;60.19;99620.25;5065496;28;20575;-75
2022/02/23 00:40:59;;;;;;;17.60;7.15;;;;;;;5.19;60.25;99611.88;5064853;28;20135;-76
2022/02/23 00:43:26;;;;;;;16.45;7.70;;;;;;;5.17;60.27;99599.69;5064732;28;20040;-74
2022/02/23 00:45:53;;;;;;;17.85;7.28;;;;;;;5.17;60.25;99607.56;5069405;28;20524;-76
2022/02/23 00:48:20;;;;;;;13.82;6.60;;;;;;;5.20;60.12;99610.91;5067147;28;20055;-75
2022/02/23 00:50:47;;;;;;;18.50;7.10;;;;;;;5.19;60.24;99598.78;5067865;28;20044;-76
2022/02/23 00:53:16;;;;;;;18.27;6.05;;;;;;;5.20;60.25;99595.22;5068598;28;20040;-76
2022/02/23 00:55:43;;;;;;;20.05;7.47;;;;;;;5.21;60.02;99591.66;5065977;28;20149;-75
2022/02/23 00:58:10;;;;;;;28.40;10.02;;;;;;;5.22;60.18;99588.09;5048954;28;20052;-75
2022/02/23 01:00:37;;;;;;;14.45;5.95;;;;;;;5.26;60.08;99581.75;5067606;28;20074;-75
2022/02/23 01:03:04;;;;;;;16.08;6.30;;;;;;;5.27;59.92;99586.88;5067587;28;20672;-76
2022/02/23 01:05:32;;;;;;;22.77;8.27;;;;;;;5.31;59.97;99574.44;5067479;28;20052;-76
2022/02/23 01:07:59;;;;;;;21.02;7.50;;;;;;;5.30;59.87;99578.00;5067821;28;20048;-76
2022/02/23 01:10:28;;;;;;;19.67;7.95;;;;;;;5.33;59.82;99575.19;5066825;28;20083;-73
2022/02/23 01:12:55;;;;;;;24.17;7.55;;;;;;;5.34;59.72;99579.50;5067360;28;20114;-76
2022/02/23 01:15:22;;;;;;;19.15;6.93;;;;;;;5.35;59.76;99578.56;5068866;28;20041;-76
2022/02/23 01:17:49;;;;;;;25.95;6.50;;;;;;;5.38;59.62;99572.28;5067952;28;20046;-75
2022/02/23 01:20:16;;;;;;;23.15;6.50;;;;;;;5.37;59.56;99566.22;5067990;28;20131;-75
2022/02/23 01:22:43;;;;;;;24.42;8.00;;;;;;;5.40;59.54;99566.00;5068734;28;20127;-75
2022/02/23 01:25:11;;;;;;;17.52;7.78;;;;;;;5.38;59.51;99556.56;5067216;28;20040;-76
2022/02/23 01:27:39;;;;;;;20.77;6.65;;;;;;;5.42;59.57;99555.44;5065050;28;20095;-76
2022/02/23 01:30:08;;;;;;;16.58;6.18;;;;;;;5.42;59.38;99551.06;5068999;28;20080;-73
2022/02/23 01:32:35;;;;;;;17.02;6.68;;;;;;;5.46;59.24;99542.06;5077097;28;20045;-75
2022/02/23 01:35:02;;;;;;;13.55;5.78;;;;;;;5.47;59.26;99543.72;5076739;28;20127;-76
2022/02/23 01:37:29;;;;;;;23.58;7.22;;;;;;;5.46;59.17;99547.31;5077302;28;20068;-74
2022/02/23 01:39:56;;;;;;;12.65;5.35;;;;;;;5.48;59.24;99545.44;5075879;28;20427;-75
2022/02/23 01:42:23;;;;;;;17.38;7.00;;;;;;;5.44;59.08;99538.72;5076715;28;20071;-74
2022/02/23 01:44:51;;;;;;;22.58;7.35;;;;;;;5.48;59.02;99527.09;5078263;28;20116;-75
2022/02/23 01:47:18;;;;;;;19.90;7.07;;;;;;;5.52;58.78;99533.81;5070747;28;20147;-74
2022/02/23 01:49:45;;;;;;;15.25;5.63;;;;;;;5.51;58.92;99528.66;5067725;28;20045;-73
2022/02/23 01:52:12;;;;;;;17.05;5.43;;;;;;;5.53;58.85;99521.59;5067848;28;20128;-76
2022/02/23 01:54:39;;;;;;;8.02;5.07;;;;;;;5.53;58.86;99518.97;5066869;28;20044;-73
2022/02/23 01:57:06;;;;;;;19.98;7.90;;;;;;;5.52;58.68;99515.47;5065670;28;20124;-74
2022/02/23 01:59:34;;;;;;;15.00;5.85;;;;;;;5.53;58.73;99506.69;5067891;28;20049;-74
2022/02/23 02:02:04;;;;;;;13.63;5.43;;;;;;;5.57;58.73;99501.28;5067289;28;20515;-74
2022/02/23 02:04:33;;;;;;;22.00;6.55;;;;;;;5.59;58.60;99496.78;5068552;28;20119;-74
2022/02/23 02:07:00;;;;;;;20.10;6.28;;;;;;;5.60;58.56;99487.94;5068226;28;20119;-74
2022/02/23 02:09:27;;;;;;;21.23;6.20;;;;;;;5.64;58.38;99479.81;5067221;28;20053;-74
2022/02/23 02:11:54;;;;;;;18.13;6.63;;;;;;;5.62;58.28;99489.56;5068051;28;20573;-76
2022/02/23 02:14:22;;;;;;;13.10;5.63;;;;;;;5.68;57.96;99490.94;5066696;28;20508;-72
2022/02/23 02:16:50;;;;;;;14.77;5.75;;;;;;;5.69;58.11;99487.38;5066209;28;20049;-74
2022/02/23 02:19:18;;;;;;;14.70;5.50;;;;;;;5.68;58.13;99480.47;5066967;28;20408;-74
2022/02/23 02:21:54;;;;;;;13.05;5.25;;;;;;;5.73;58.09;99471.34;5066860;28;20495;-74
2022/02/23 02:24:22;;;;;;;14.38;5.22;;;;;;;5.76;57.81;99465.06;5066856;28;20064;-72
2022/02/23 02:26:49;;;;;;;8.15;4.30;;;;;;;5.78;57.89;99471.06;5065773;28;20048;-74
2022/02/23 02:29:16;;;;;;;13.43;4.68;;;;;;;5.81;57.83;99470.84;5066432;28;20080;-76
2022/02/23 02:31:43;;;;;;;16.00;5.28;;;;;;;5.85;57.60;99466.25;5066645;28;20485;-73
2022/02/23 02:34:10;;;;;;;19.02;6.72;;;;;;;5.89;57.62;99467.75;5066489;28;20094;-73
2022/02/23 02:36:37;;;;;;;12.07;4.43;;;;;;;5.89;57.54;99457.25;5065135;28;20596;-75
2022/02/23 02:39:07;;;;;;;12.85;5.00;;;;;;;5.91;57.38;99458.84;5066608;28;20757;-74
2022/02/23 02:41:34;;;;;;;15.93;6.13;;;;;;;5.94;57.22;99455.16;5067096;28;20059;-75
2022/02/23 02:44:02;;;;;;;17.48;7.53;;;;;;;5.97;57.08;99454.16;5065017;28;20135;-74
2022/02/23 02:46:28;;;;;;;7.25;4.00;;;;;;;6.02;56.94;99457.31;5065950;28;20079;-74
2022/02/23 02:48:56;;;;;;;14.70;5.00;;;;;;;6.00;56.88;99453.97;5065201;28;20553;-75
2022/02/23 02:51:23;;;;;;;9.23;4.30;;;;;;;6.07;56.56;99461.31;5064739;28;20055;-73
2022/02/23 02:53:50;;;;;;;18.20;5.55;;;;;;;6.08;56.61;99454.28;5064804;28;20540;-75
2022/02/23 02:56:19;;;;;;;11.40;5.07;;;;;;;6.11;56.56;99443.59;5063468;28;20131;-75
2022/02/23 02:58:52;;;;;;;17.63;6.55;;;;;;;6.15;56.30;99442.44;5064506;28;20049;-75
2022/02/23 03:01:19;;;;;;;21.63;6.97;;;;;;;6.17;56.40;99445.78;5065770;28;20078;-73
2022/02/23 03:03:46;;;;;;;19.77;6.40;;;;;;;6.17;56.07;99443.16;5064304;28;20048;-75
2022/02/23 03:06:13;;;;;;;10.63;6.07;;;;;;;6.16;56.15;99454.63;5063174;28;20051;-74
2022/02/23 03:08:40;;;;;;;12.75;5.53;;;;;;;6.15;56.23;99455.56;5065793;28;20117;-75
2022/02/23 03:11:07;;;;;;;12.50;6.50;;;;;;;6.15;56.13;99447.69;5064241;28;20051;-74
2022/02/23 03:13:36;;;;;;;16.35;6.32;;;;;;;6.13;56.20;99445.16;5064133;28;20040;-74
2022/02/23 03:16:04;;;;;;;14.98;6.85;;;;;;;6.13;56.26;99449.56;5065511;28;20067;-74
2022/02/23 03:18:31;;;;;;;15.23;7.32;;;;;;;6.07;56.49;99445.59;5064553;28;20123;-75
2022/02/23 03:20:58;;;;;;;12.85;4.82;;;;;;;6.05;56.74;99441.38;5064503;28;20131;-74
2022/02/23 03:23:25;;;;;;;20.35;8.40;;;;;;;5.98;57.00;99443.56;5064946;28;20049;-75
2022/02/23 03:25:52;;;;;;;12.75;4.85;;;;;;;5.92;57.03;99438.69;5062370;28;20052;-76
2022/02/23 03:28:20;;;;;;;12.07;6.50;;;;;;;5.83;57.47;99436.69;5064005;28;20048;-76
2022/02/23 03:30:48;;;;;;;19.85;5.57;;;;;;;5.80;57.68;99439.50;5064676;28;20634;-75
2022/02/23 03:33:16;;;;;;;14.82;6.93;;;;;;;5.66;58.04;99429.94;5063614;28;20423;-75
2022/02/23 03:35:44;;;;;;;13.02;5.18;;;;;;;5.63;58.32;99436.22;5064865;28;20055;-74
2022/02/23 03:38:12;;;;;;;13.07;6.75;;;;;;;5.63;58.55;99430.13;5065452;28;20044;-75
2022/02/23 03:40:40;;;;;;;14.55;7.00;;;;;;;5.59;58.65;99428.66;5064394;28;20066;-73
2022/02/23 03:43:08;;;;;;;9.65;4.70;;;;;;;5.57;58.81;99430.53;5064572;28;20059;-75
2022/02/23 03:45:35;;;;;;;13.18;6.05;;;;;;;5.52;58.90;99426.44;5045344;28;20049;-75
2022/02/23 03:48:04;;;;;;;11.77;6.32;;;;;;;5.48;59.08;99424.13;5043412;28;20076;-74
2022/02/23 03:50:31;;;;;;;22.38;6.45;;;;;;;5.47;59.23;99412.78;5044140;28;20076;-74
2022/02/23 03:52:58;;;;;;;21.77;7.32;;;;;;;5.43;59.41;99420.94;5044361;28;20051;-74
2022/02/23 03:55:25;;;;;;;14.10;5.78;;;;;;;5.37;59.60;99414.34;5043066;28;20053;-75
2022/02/23 03:57:52;;;;;;;14.35;6.28;;;;;;;5.39;59.51;99411.63;5043041;28;20120;-75
2022/02/23 04:00:19;;;;;;;13.25;5.90;;;;;;;5.39;59.63;99411.63;5044197;28;20045;-76
2022/02/23 04:02:46;;;;;;;14.25;6.40;;;;;;;5.38;59.94;99416.00;5043318;28;20067;-74
2022/02/23 04:05:14;;;;;;;17.30;6.45;;;;;;;5.35;59.90;99411.81;5044893;28;20056;-74
2022/02/23 04:07:41;;;;;;;18.77;7.15;;;;;;;5.35;60.04;99422.28;5044286;28;20388;-74
2022/02/23 04:10:09;;;;;;;18.75;6.20;;;;;;;5.38;59.99;99416.00;5043466;28;20126;-74
2022/02/23 04:12:36;;;;;;;16.80;6.80;;;;;;;5.38;60.13;99408.16;5045662;28;20462;-74
2022/02/23 04:15:03;;;;;;;13.80;6.22;;;;;;;5.33;60.32;99413.69;5043768;28;20133;-75
2022/02/23 04:17:30;;;;;;;18.52;6.10;;;;;;;5.33;60.42;99420.69;5045077;28;20059;-75
2022/02/23 04:19:57;;;;;;;15.27;5.95;;;;;;;5.33;60.58;99402.34;5049353;28;20397;-76
2022/02/23 04:22:26;;;;;;;14.65;5.57;;;;;;;5.34;60.63;99399.66;5048585;28;20148;-75
2022/02/23 04:24:54;;;;;;;16.45;6.03;;;;;;;5.33;60.73;99402.34;5048254;28;20076;-75
2022/02/23 04:27:21;;;;;;;13.18;5.60;;;;;;;5.32;61.00;99405.94;5047894;28;20045;-76
2022/02/23 04:29:48;;;;;;;11.63;5.45;;;;;;;5.32;61.23;99398.06;5049267;28;20447;-74
2022/02/23 04:32:15;;;;;;;12.95;6.38;;;;;;;5.28;61.08;99401.84;5048039;28;20051;-74
2022/02/23 04:34:42;;;;;;;15.75;7.32;;;;;;;5.30;61.09;99392.09;5049901;28;20045;-75
2022/02/23 04:37:09;;;;;;;17.13;6.95;;;;;;;5.29;61.27;99398.25;5049001;28;20170;-74
2022/02/23 04:39:38;;;;;;;14.80;6.70;;;;;;;5.34;61.38;99396.19;5049510;28;20095;-74
2022/02/23 04:42:08;;;;;;;19.23;7.32;;;;;;;5.35;61.36;99400.50;5049675;28;20626;-75
2022/02/23 04:44:39;;;;;;;16.45;8.10;;;;;;;5.40;61.53;99403.66;5060345;28;20488;-76
2022/02/23 04:47:08;;;;;;;11.60;6.28;;;;;;;5.44;61.53;99388.56;5068433;28;20044;-75
2022/02/23 04:49:35;;;;;;;16.80;7.05;;;;;;;5.45;61.93;99401.56;5069620;28;20098;-77
2022/02/23 04:52:02;;;;;;;12.02;7.10;;;;;;;5.44;62.18;99399.03;5072525;28;20431;-76
2022/02/23 04:54:29;;;;;;;13.60;6.57;;;;;;;5.48;62.14;99404.00;5071635;28;20056;-76
2022/02/23 04:56:57;;;;;;;17.35;7.07;;;;;;;5.48;62.29;99392.69;5069593;28;20519;-75
2022/02/23 04:59:24;;;;;;;16.65;7.53;;;;;;;5.54;62.34;99398.34;5068420;28;20106;-77
2022/02/23 05:01:51;;;;;;;13.10;7.40;;;;;;;5.55;62.22;99391.34;5068191;28;20045;-75
2022/02/23 05:04:20;;;;;;;17.92;7.32;;;;;;;5.53;62.76;99396.69;5069214;28;20397;-74
2022/02/23 05:06:47;;;;;;;13.63;5.68;;;;;;;5.57;62.63;99396.50;5068257;28;20052;-75
2022/02/23 05:09:13;;;;;;;13.70;7.80;;;;;;;5.62;62.73;99386.53;5069809;28;20127;-76
2022/02/23 05:11:40;;;;;;;12.52;6.60;;;;;;;5.64;62.59;99397.78;5068068;28;20052;-76
2022/02/23 05:14:09;;;;;;;15.40;6.30;;;;;;;5.66;62.94;99404.56;5067595;28;20044;-75
2022/02/23 05:16:36;;;;;;;16.92;9.90;;;;;;;5.69;62.75;99408.75;5073945;28;20044;-76
2022/02/23 05:19:03;;;;;;;21.25;10.32;;;;;;;5.70;63.52;99426.19;5091679;28;20075;-76
2022/02/23 05:21:30;;;;;;;16.83;7.50;;;;;;;5.75;63.16;99419.69;5097399;28;20226;-77
2022/02/23 05:23:57;;;;;;;15.70;8.07;;;;;;;5.77;63.26;99414.34;5090416;28;20035;-76
2022/02/23 05:26:24;;;;;;;15.57;6.80;;;;;;;5.83;63.01;99402.63;5086841;28;20148;-78
2022/02/23 05:28:52;;;;;;;11.40;6.50;;;;;;;5.83;63.25;99416.56;5087515;28;20076;-76
2022/02/23 05:31:20;;;;;;;15.10;10.57;;;;;;;5.86;63.33;99411.13;5088559;28;20138;-72
2022/02/23 05:33:47;;;;;;;12.57;6.53;;;;;;;5.92;63.35;99422.97;5094385;28;20079;-76
2022/02/23 05:36:14;;;;;;;14.93;6.68;;;;;;;5.93;63.50;99420.25;5094115;28;20139;-76
2022/02/23 05:38:41;;;;;;;18.77;10.52;;;;;;;5.93;63.64;99422.88;5097043;28;20222;-74
2022/02/23 05:41:08;;;;;;;14.32;7.97;;;;;;;5.97;63.67;99414.84;5097028;28;20096;-73
2022/02/23 05:43:35;;;;;;;14.57;8.13;;;;;;;5.98;63.56;99414.75;5092969;28;20142;-75
2022/02/23 05:46:03;;;;;;;16.98;8.43;;;;;;;6.01;63.65;99424.16;5084229;28;20105;-74
2022/02/23 05:48:31;;;;;;;14.02;7.25;;;;;;;6.05;63.83;99433.50;5077010;28;20124;-74
2022/02/23 05:50:58;;;;;;;11.55;6.78;;;;;;;6.08;63.78;99428.06;5078717;28;20043;-70
2022/02/23 05:53:25;;;;;;;19.02;8.50;;;;;;;6.11;63.92;99431.31;5093216;28;20635;-72
2022/02/23 05:55:52;;;;;;;13.35;7.05;;;;;;;6.18;63.50;99431.75;5088534;28;20104;-76
2022/02/23 05:58:19;;;;;;;15.48;9.07;;;;;;;6.22;63.55;99450.75;5085069;28;20100;-74
2022/02/23 06:00:46;;;;;;;15.52;8.50;;;;;;;6.23;63.79;99452.41;5073110;28;20049;-74
2022/02/23 06:03:13;;;;;;;18.10;10.05;;;;;;;6.21;63.89;99454.28;5083966;28;20124;-72
2022/02/23 06:05:42;;;;;;;16.20;9.55;;;;;;;6.24;64.11;99461.97;5068504;28;20400;-73
2022/02/23 06:08:09;;;;;;;16.60;9.23;;;;;;;6.26;63.95;99455.66;5070419;28;20094;-75
2022/02/23 06:10:36;;;;;;;17.67;9.27;;;;;;;6.29;63.99;99476.44;5067387;28;20084;-77
2022/02/23 06:13:03;;;;;;;17.80;8.20;;;;;;;6.30;64.14;99475.50;5067172;28;20188;-75
2022/02/23 06:15:30;;;;;;;11.50;7.85;;;;;;;6.36;64.19;99490.00;5071443;28;20075;-72
2022/02/23 06:17:57;;;;;;;12.85;7.03;;;;;;;6.36;65.37;99481.28;5072286;28;20514;-81
2022/02/23 06:20:24;;;;;;;15.55;7.75;;;;;;;6.36;66.64;99489.16;5090429;28;20050;-75
2022/02/23 06:22:53;;;;;;;12.50;9.32;;;;;;;6.38;67.18;99482.03;5091054;28;20124;-77
2022/02/23 06:25:20;;;;;;;11.55;8.20;;;;;;;6.36;67.75;99482.13;5088390;28;20123;-74
2022/02/23 06:27:47;;;;;;;12.32;5.75;;;;;;;6.46;67.51;99491.06;5086579;28;20135;-78
2022/02/23 06:30:14;;;;;;;11.73;8.02;;;;;;;6.46;67.49;99498.06;5088353;28;20039;-80
2022/02/23 06:32:41;;;;;;;13.40;6.38;;;;;;;6.53;67.56;99504.59;5070737;28;20051;-75
2022/02/23 06:35:09;;;;;;;18.00;8.90;;;;;;;6.56;67.58;99520.13;5069336;28;20076;-74
2022/02/23 06:37:36;;;;;;;14.95;7.43;;;;;;;6.48;67.47;99520.66;5072193;28;20560;-79
2022/02/23 06:40:06;;;;;;;13.23;8.40;;;;;;;6.53;66.90;99519.50;5072708;28;20127;-82
2022/02/23 06:42:33;;;;;;;17.30;9.60;;;;;;;6.56;66.79;99545.53;5073417;28;20040;-73
2022/02/23 06:45:03;;;;;;;18.58;8.00;;;;;;;6.62;66.29;99534.59;5071672;28;20120;-80
2022/02/23 06:47:30;;;;;;;18.23;8.35;;;;;;;6.56;66.11;99537.66;5072446;28;20059;-76
2022/02/23 06:49:58;;;;;;;18.80;9.38;;;;;;;6.54;66.37;99537.75;5072407;28;20123;-81
2022/02/23 06:52:28;;;;;;;24.27;11.43;;;;;;;6.49;66.65;99551.16;5071803;28;20135;-71
2022/02/23 06:54:55;;;;;;;23.80;10.13;;;;;;;6.53;66.75;99559.69;5073402;28;20627;-79
2022/02/23 06:57:35;;;;;;;18.05;9.43;;;;;;;6.55;66.42;99560.41;5073334;28;20044;-74
2022/02/23 07:00:02;;;;;;;21.85;10.25;;;;;;;6.61;66.27;99570.50;5075155;28;20049;-78
2022/02/23 07:02:30;;;;;;;23.38;13.10;;;;;;;6.61;65.68;99575.75;5076874;28;20051;-76
2022/02/23 07:04:57;;;;;;;24.00;10.25;;;;;;;6.66;65.65;99593.81;5074791;28;20112;-73
2022/02/23 07:07:24;;;;;;;20.75;9.80;;;;;;;6.74;65.46;99588.06;5073080;28;20080;-76
2022/02/23 07:09:52;;;;;;;25.88;9.10;;;;;;;6.75;64.88;99589.72;5076212;28;20075;-76
2022/02/23 07:12:19;;;;;;;22.80;10.55;;;;;;;6.77;64.51;99586.06;5073242;28;20171;-77
2022/02/23 07:14:47;;;;;;;24.63;8.65;;;;;;;6.87;64.50;99602.84;5077524;28;20105;-81
2022/02/23 07:17:14;;;;;;;23.42;9.55;;;;;;;6.86;63.76;99610.84;5081760;28;20091;-77
2022/02/23 07:19:41;;;;;;;23.25;9.98;;;;;;;6.87;63.48;99617.78;5079343;28;20104;-75
2022/02/23 07:22:08;;;;;;;22.92;8.70;;;;;;;7.00;63.12;99623.88;5076913;28;20056;-74
2022/02/23 07:24:36;;;;;;;14.40;6.25;;;;;;;7.11;63.18;99636.28;5076911;28;20044;-77
2022/02/23 07:27:10;;;;;;;20.15;5.22;;;;;;;7.22;62.35;99644.28;5055951;28;20045;-73
2022/02/23 07:29:37;;;;;;;25.65;9.35;;;;;;;7.32;61.81;99639.22;5076662;28;20100;-76
2022/02/23 07:32:06;;;;;;;19.40;9.48;;;;;;;7.31;61.71;99640.19;5075429;28;20614;-81
2022/02/23 07:34:37;;;;;;;22.13;7.80;;;;;;;7.36;61.29;99651.19;5059065;28;20096;-73
2022/02/23 07:37:04;;;;;;;25.58;7.07;;;;;;;7.36;61.17;99655.63;5074027;28;20033;-76
2022/02/23 07:39:31;;;;;;;20.30;8.35;;;;;;;7.36;60.59;99658.25;5075353;28;20210;-75
2022/02/23 07:41:59;;;;;;;25.83;9.23;;;;;;;7.47;60.37;99664.44;5072557;28;20128;-73
2022/02/23 07:44:26;;;;;;;22.05;7.90;;;;;;;7.45;59.60;99670.75;5071959;28;20112;-80
2022/02/23 07:46:53;;;;;;;21.38;8.20;;;;;;;7.55;59.92;99681.47;5073347;28;20072;-72
2022/02/23 07:49:24;;;;;;;21.17;8.07;;;;;;;7.76;59.94;99694.91;5071359;28;20050;-79
2022/02/23 07:51:51;;;;;;;20.15;7.90;;;;;;;7.75;58.80;99683.56;5069992;28;20045;-78
2022/02/23 07:54:19;;;;;;;14.88;7.72;;;;;;;7.69;58.66;99693.63;5072007;28;20103;-73
2022/02/23 07:56:46;;;;;;;19.52;8.63;;;;;;;7.66;58.60;99711.31;5079528;28;20079;-75
2022/02/23 07:59:16;;;;;;;20.27;6.82;;;;;;;7.68;58.48;99707.75;5084533;28;20106;-74
2022/02/23 08:01:44;;;;;;;22.52;7.93;;;;;;;7.69;58.26;99709.41;5084285;28;20163;-75
2022/02/23 08:04:11;;;;;;;23.98;8.70;;;;;;;7.65;57.88;99707.03;5085458;28;20615;-74
2022/02/23 08:06:41;;;;;;;21.55;6.88;;;;;;;7.73;58.16;99713.53;5083862;28;20044;-74
2022/02/23 08:09:09;;;;;;;22.77;8.27;;;;;;;7.66;57.54;99705.22;5085357;28;20060;-75
2022/02/23 08:11:39;;;;;;;22.83;7.15;;;;;;;7.59;57.62;99720.56;5084218;28;20063;-74
2022/02/23 08:14:06;;;;;;;16.98;7.22;;;;;;;7.65;57.70;99728.03;5086125;28;20037;-78
2022/02/23 08:19:34;;;;;;;16.95;5.63;;;;;;;8.06;56.94;99723.47;5085891;28;20078;-77
2022/02/23 08:22:05;;;;;;;21.35;7.47;;;;;;;8.38;56.17;99722.97;5086542;28;20034;-77
2022/02/23 08:24:34;;;;;;;22.13;9.30;;;;;;;8.31;56.25;99737.53;5085582;28;20068;-73
2022/02/23 08:27:03;;;;;;;24.67;8.40;;;;;;;8.23;55.54;99728.38;5083532;28;20032;-76
2022/02/23 08:29:31;;;;;;;15.68;7.43;;;;;;;8.16;55.72;99729.78;5086182;28;20033;-75
2022/02/23 08:31:59;;;;;;;22.80;8.25;;;;;;;8.16;54.77;99747.34;5081991;28;20047;-72
2022/02/23 08:34:26;;;;;;;18.50;7.25;;;;;;;8.16;55.12;99737.66;5081218;28;20128;-76
2022/02/23 08:36:54;;;;;;;23.38;10.93;;;;;;;8.15;55.35;99740.38;5077285;28;20044;-75
2022/02/23 08:39:23;;;;;;;14.75;5.22;;;;;;;8.10;55.88;99766.16;5071688;28;20196;-78
2022/02/23 08:41:50;;;;;;;22.52;5.05;;;;;;;8.26;55.52;99758.06;5068042;28;20079;-73
2022/02/23 08:44:17;;;;;;;23.55;6.03;;;;;;;8.40;54.80;99768.44;5067557;28;20080;-79
2022/02/23 08:46:45;;;;;;;15.63;6.13;;;;;;;8.51;54.74;99767.69;5066832;28;20049;-79
2022/02/23 08:49:13;;;;;;;13.25;4.18;;;;;;;8.80;54.28;99776.13;5069287;28;20113;-77
2022/02/23 08:51:43;;;;;;;20.10;5.85;;;;;;;8.72;53.64;99773.22;5069327;28;20049;-76
2022/02/23 08:54:10;;;;;;;18.08;5.25;;;;;;;8.67;54.03;99788.50;5067730;28;20429;-78
2022/02/23 08:56:40;;;;;;;17.83;8.05;;;;;;;8.60;53.75;99774.94;5066303;28;20088;-76
2022/02/23 08:59:07;;;;;;;23.02;8.30;;;;;;;8.53;54.05;99785.06;5067645;28;20136;-75
2022/02/23 09:01:35;;;;;;;12.65;5.15;;;;;;;8.47;54.26;99784.66;5068685;28;20047;-77
2022/02/23 09:04:03;;;;;;;17.55;5.70;;;;;;;8.56;54.59;99800.63;5067807;28;20064;-80
2022/02/23 09:06:34;;;;;;;17.90;6.60;;;;;;;8.68;54.41;99803.34;5071296;28;20055;-76
2022/02/23 09:09:01;;;;;;;13.73;6.00;;;;;;;8.71;53.75;99779.44;5071269;28;20076;-80
2022/02/23 09:11:28;;;;;;;14.63;4.78;;;;;;;8.70;53.67;99807.56;5073778;28;20048;-75
2022/02/23 09:13:58;;;;;;;24.00;6.30;;;;;;;8.74;53.77;99803.75;5073183;28;21461;-79
2022/02/23 09:16:25;;;;;;;21.02;7.00;;;;;;;8.88;53.51;99818.56;5071585;28;20086;-83
2022/02/23 09:18:52;;;;;;;16.17;7.45;;;;;;;8.72;53.25;99810.09;5072063;28;20045;-76
2022/02/23 09:21:19;;;;;;;18.30;6.68;;;;;;;8.79;53.55;99816.59;5072718;28;20080;-76
2022/02/23 09:23:46;;;;;;;19.83;7.63;;;;;;;8.87;53.20;99819.50;5072083;28;20076;-81
2022/02/23 09:26:15;;;;;;;21.40;7.32;;;;;;;8.77;53.14;99807.97;5070310;28;20052;-85
2022/02/23 09:28:45;;;;;;;17.92;6.80;;;;;;;8.98;53.21;99829.25;5070252;28;20040;-74
2022/02/23 09:31:14;;;;;;;21.02;7.63;;;;;;;8.80;52.47;99819.13;5072861;28;20120;-76
2022/02/23 09:33:43;;;;;;;22.75;10.00;;;;;;;8.80;52.79;99816.47;5069984;28;20041;-84
2022/02/23 09:36:11;;;;;;;19.60;7.65;;;;;;;8.62;52.78;99817.78;5070247;28;20187;-78
2022/02/23 09:38:38;;;;;;;20.10;7.00;;;;;;;8.56;53.01;99828.75;5072833;28;20060;-74
2022/02/23 09:41:09;;;;;;;20.92;9.40;;;;;;;8.56;53.22;99834.03;5073183;28;20120;-77
2022/02/23 09:43:37;;;;;;;17.98;7.25;;;;;;;8.56;53.25;99832.22;5070662;28;20139;-77
2022/02/23 09:46:06;;;;;;;15.45;5.07;;;;;;;8.55;53.21;99830.56;5071235;28;20055;-76
2022/02/23 09:48:35;;;;;;;18.00;6.05;;;;;;;8.56;52.62;99829.59;5067981;28;20052;-79
2022/02/23 09:51:02;;;;;;;18.42;7.72;;;;;;;8.52;52.13;99827.31;5069289;28;20048;-80
2022/02/23 09:53:29;;;;;;;23.65;6.18;;;;;;;8.47;52.40;99839.94;5065225;28;20044;-80
2022/02/23 09:55:59;;;;;;;18.88;8.05;;;;;;;8.42;52.39;99845.50;5062613;28;20060;-80
2022/02/23 09:58:26;;;;;;;20.50;7.63;;;;;;;8.39;52.11;99840.41;5063541;28;20103;-77
2022/02/23 10:00:54;;;;;;;30.77;7.30;;;;;;;8.53;52.16;99857.91;5064088;28;20514;-75
2022/02/23 10:03:21;;;;;;;20.15;8.15;;;;;;;8.55;52.22;99856.88;5064461;28;20051;-73
2022/02/23 10:05:50;;;;;;;28.10;10.93;;;;;;;8.69;52.33;99847.97;5064782;28;20044;-75
2022/02/23 10:08:17;;;;;;;20.92;7.60;;;;;;;8.77;51.96;99863.25;5065030;28;20072;-75
2022/02/23 10:10:48;;;;;;;16.13;8.18;;;;;;;8.87;51.48;99864.25;5063710;28;20050;-74
2022/02/23 10:13:18;;;;;;;19.77;9.35;;;;;;;8.45;53.48;99847.94;5063856;28;20663;-76
2022/02/23 10:15:49;;;;;;;14.38;6.50;;;;;;;8.08;55.62;99868.84;5064470;28;20625;-77
2022/02/23 10:18:19;;;;;;;23.08;7.18;;;;;;;7.92;57.00;99882.19;5065138;28;20052;-79
2022/02/23 10:20:47;;;;;;;19.40;7.30;;;;;;;7.78;58.53;99893.66;5066444;28;20065;-80
2022/02/23 10:23:18;;;;;;;21.52;7.95;;;;;;;7.61;60.25;99884.25;5067097;28;20048;-79
2022/02/23 10:25:51;;;;;;;21.17;8.93;;;;;;;7.44;61.41;99885.38;5067103;28;20045;-73
2022/02/23 10:28:21;;;;;;;25.05;9.38;;;;;;;7.35;61.63;99895.66;5067061;28;20048;-82
2022/02/23 10:30:50;;;;;;;19.73;7.07;;;;;;;7.36;61.56;99906.03;5067456;28;20053;-78
2022/02/23 10:33:20;;;;;;;19.23;6.43;;;;;;;7.57;61.38;99910.84;5066492;28;20067;-75
2022/02/23 10:35:57;;;;;;;19.98;9.13;;;;;;;7.61;61.01;99909.69;5069741;28;20116;-83
2022/02/23 10:38:30;;;;;;;23.42;10.02;;;;;;;7.74;59.37;99893.97;5071426;28;20419;-77
2022/02/23 10:40:58;;;;;;;15.23;8.30;;;;;;;8.06;59.39;99914.63;5066151;28;20526;-80
2022/02/23 10:43:31;;;;;;;19.27;7.45;;;;;;;8.30;57.72;99893.69;5069345;28;20044;-78
2022/02/23 10:46:11;;;;;;;18.10;7.88;;;;;;;8.32;56.60;99905.81;5067219;28;20088;-78
2022/02/23 10:48:40;;;;;;;14.65;6.65;;;;;;;8.36;56.16;99909.06;5064851;28;20113;-82
2022/02/23 10:51:09;;;;;;;15.65;6.47;;;;;;;8.47;55.60;99930.25;5067080;28;20132;-77
2022/02/23 10:53:38;;;;;;;18.25;7.97;;;;;;;8.61;54.30;99908.25;5067883;28;20124;-76
2022/02/23 10:56:22;;;;;;;15.02;6.78;;;;;;;8.44;53.29;99913.84;5063240;28;20063;-76
2022/02/23 10:59:00;;;;;;;20.58;8.10;;;;;;;8.76;53.69;99922.13;5068830;28;20049;-80
2022/02/23 11:01:27;;;;;;;16.80;6.88;;;;;;;8.84;52.81;99924.22;5068751;28;20048;-78
2022/02/23 11:03:54;;;;;;;12.95;5.85;;;;;;;8.75;51.19;99929.19;5067443;28;20052;-73
2022/02/23 11:06:23;;;;;;;19.52;7.07;;;;;;;8.89;50.88;99919.47;5068426;28;20552;-75
2022/02/23 11:08:52;;;;;;;17.83;8.63;;;;;;;8.85;50.50;99913.56;5070006;28;20048;-76
2022/02/23 11:11:20;;;;;;;15.38;6.35;;;;;;;8.95;51.17;99938.31;5068257;28;20070;-79
2022/02/23 11:13:47;;;;;;;17.65;7.50;;;;;;;9.05;50.67;99938.50;5069663;28;20579;-75
2022/02/23 11:16:15;;;;;;;16.48;6.82;;;;;;;8.97;50.73;99941.69;5065122;28;20296;-81
2022/02/23 11:18:44;;;;;;;17.80;6.18;;;;;;;9.23;50.77;99936.34;5073584;28;20100;-79
2022/02/23 11:21:13;;;;;;;20.58;6.13;;;;;;;9.32;50.57;99942.75;5068912;28;20100;-79
2022/02/23 11:23:41;;;;;;;18.23;6.93;;;;;;;9.13;50.20;99925.63;5062215;28;20128;-74
2022/02/23 11:26:13;;;;;;;19.50;7.07;;;;;;;9.06;49.86;99928.81;5062828;28;20102;-83
2022/02/23 11:28:47;;;;;;;20.77;7.80;;;;;;;8.90;49.30;99940.44;5062232;28;20044;-75
2022/02/23 11:31:15;;;;;;;14.70;6.50;;;;;;;8.93;49.05;99939.34;5045523;28;20076;-78
2022/02/23 11:33:58;;;;;;;17.52;6.40;;;;;;;8.96;47.63;99916.28;5067933;28;20128;-77
2022/02/23 11:36:29;;;;;;;12.90;5.43;;;;;;;8.85;47.53;99924.09;5062757;28;20733;-78
2022/02/23 11:38:58;;;;;;;17.33;6.43;;;;;;;8.83;47.77;99954.97;5063326;28;20266;-73
2022/02/23 11:41:30;;;;;;;15.25;7.00;;;;;;;9.16;47.75;99951.78;5065491;28;20115;-80